Time;durP1;ratioP1;P1;durP2;ratioP2;P2;SDS_P1;SDS_P2;PMS_P1;PMS_P2;Temp;Humidity;BMP_temperature;BMP_pressure;BME280_temperature;BME280_humidity;BME280_pressure;Samples;Min_cycle;Max_cycle;Signal;HPM_P1;HPM_P2
2021/06/17 00:01:55;;;;;;;11.33;6.20;;;;;;;18.86;88.38;101213.02;1802304;79;21310;-76
2021/06/17 00:04:27;;;;;;;18.15;5.83;;;;;;;18.84;88.34;101199.84;1803202;79;21188;-70
2021/06/17 00:07:01;;;;;;;10.85;5.87;;;;;;;18.87;88.23;101195.84;1802683;79;21357;-75
2021/06/17 00:09:34;;;;;;;14.63;7.00;;;;;;;18.89;87.97;101196.95;1801899;79;21313;-70
2021/06/17 00:12:08;;;;;;;14.05;5.70;;;;;;;18.88;87.83;101192.44;1803452;79;21555;-77
2021/06/17 00:14:40;;;;;;;;;;;;;;;18.86;87.59;101189.10;1806074;79;21349;-71
2021/06/17 00:17:14;;;;;;;13.83;5.80;;;;;;;18.82;87.37;101183.80;1801167;79;20259;-74
2021/06/17 00:19:48;;;;;;;12.65;5.83;;;;;;;18.73;87.27;101182.82;1800393;80;21350;-76
2021/06/17 00:22:21;;;;;;;17.95;6.45;;;;;;;18.72;87.30;101175.52;1801303;79;21684;-70
2021/06/17 00:24:53;;;;;;;10.95;4.97;;;;;;;18.71;87.03;101166.23;1803360;79;21211;-78
2021/06/17 00:27:26;;;;;;;17.85;5.75;;;;;;;18.67;86.97;101174.18;1803131;79;21215;-75
2021/06/17 00:29:59;;;;;;;31.85;6.10;;;;;;;18.65;86.90;101175.87;1802866;79;21381;-68
2021/06/17 00:32:32;;;;;;;20.70;6.35;;;;;;;18.65;86.99;101178.69;1803195;79;21309;-76
2021/06/17 00:35:07;;;;;;;24.23;6.15;;;;;;;18.65;86.91;101181.50;1802909;79;21179;-68
2021/06/17 00:37:41;;;;;;;9.95;4.53;;;;;;;18.66;86.73;101178.14;1802885;78;21203;-69
2021/06/17 00:40:15;;;;;;;;;;;;;;;18.63;86.45;101187.16;1805846;79;21661;-75
2021/06/17 00:42:49;;;;;;;12.00;4.80;;;;;;;18.60;86.10;101173.13;1792043;79;20601;-69
2021/06/17 00:45:29;;;;;;;13.30;5.12;;;;;;;18.53;86.04;101171.26;1773676;80;21179;-68
2021/06/17 00:48:01;;;;;;;16.48;4.40;;;;;;;18.49;86.08;101169.36;1789154;78;21219;-74
2021/06/17 00:50:39;;;;;;;8.70;4.15;;;;;;;18.43;86.06;101170.56;1803070;79;21230;-77
2021/06/17 00:53:12;;;;;;;14.40;5.83;;;;;;;18.37;86.35;101172.61;1802837;79;21356;-74
2021/06/17 00:55:46;;;;;;;20.57;5.42;;;;;;;18.36;86.50;101177.13;1802450;79;21800;-74
2021/06/17 00:58:19;;;;;;;20.77;6.05;;;;;;;18.36;86.57;101177.13;1801281;79;21329;-68
2021/06/17 01:00:51;;;;;;;18.32;5.05;;;;;;;18.32;86.55;101170.41;1801120;79;21680;-72
2021/06/17 01:03:24;;;;;;;16.23;5.30;;;;;;;18.31;86.65;101182.80;1803976;79;21819;-69
2021/06/17 01:05:57;;;;;;;7.10;5.03;;;;;;;18.32;86.71;101181.11;1802006;79;21364;-70
2021/06/17 01:08:51;;;;;;;13.22;4.72;;;;;;;18.33;86.66;101167.86;1802912;79;21222;-77
2021/06/17 01:11:37;;;;;;;18.80;3.92;;;;;;;18.33;86.66;101188.95;1803708;79;21309;-74
2021/06/17 01:14:13;;;;;;;10.10;4.05;;;;;;;18.34;86.64;101190.66;1802876;78;21184;-75
2021/06/17 01:16:54;;;;;;;13.95;4.12;;;;;;;18.39;86.61;101186.35;1800980;79;21309;-72
2021/06/17 01:19:37;;;;;;;12.95;3.95;;;;;;;18.40;86.40;101187.47;1802021;79;21360;-70
2021/06/17 01:22:33;;;;;;;12.35;4.30;;;;;;;18.40;86.22;101187.47;1801841;79;21317;-69
2021/06/17 01:26:02;;;;;;;7.78;3.95;;;;;;;18.34;86.22;101187.26;1803442;79;21664;-68
2021/06/17 01:28:35;;;;;;;19.12;5.75;;;;;;;18.31;86.21;101189.83;1768128;80;21341;-72
2021/06/17 01:31:13;;;;;;;12.05;4.30;;;;;;;18.24;86.39;101194.36;1770781;80;21195;-76
2021/06/17 01:33:47;;;;;;;10.32;4.17;;;;;;;18.14;86.39;101202.94;1770633;79;21329;-74
2021/06/17 01:36:25;;;;;;;10.95;4.20;;;;;;;18.04;86.66;101213.45;1801688;78;21200;-74
2021/06/17 01:39:05;;;;;;;12.93;5.55;;;;;;;17.99;86.94;101218.54;1802492;79;21171;-72
2021/06/17 01:41:40;;;;;;;14.60;3.92;;;;;;;17.95;87.16;101220.84;1803436;79;21227;-76
2021/06/17 01:44:13;;;;;;;8.33;3.95;;;;;;;17.90;87.40;101223.14;1801615;79;21405;-76
2021/06/17 01:46:46;;;;;;;13.80;4.17;;;;;;;17.82;87.62;101222.39;1777818;79;21337;-75
2021/06/17 01:49:19;;;;;;;12.33;4.10;;;;;;;17.77;87.95;101221.02;1769315;80;21329;-75
2021/06/17 01:51:52;;;;;;;13.72;4.55;;;;;;;17.74;88.27;101215.98;1771313;80;21214;-78
2021/06/17 01:54:26;;;;;;;12.05;3.92;;;;;;;17.75;88.42;101218.23;1772877;80;21317;-75
2021/06/17 01:57:00;;;;;;;11.45;4.12;;;;;;;17.74;88.57;101220.78;1797125;79;21313;-76
2021/06/17 01:59:32;;;;;;;10.98;4.10;;;;;;;17.70;88.81;101229.52;1803873;78;21325;-72
2021/06/17 02:02:05;;;;;;;11.27;3.83;;;;;;;17.68;89.06;101231.79;1794611;79;21333;-73
2021/06/17 02:04:39;;;;;;;12.85;4.00;;;;;;;17.66;89.11;101225.61;1770910;80;21328;-78
2021/06/17 02:07:13;;;;;;;10.30;4.58;;;;;;;17.63;89.29;101235.45;1772215;81;21327;-73
2021/06/17 02:09:46;;;;;;;15.78;5.80;;;;;;;17.56;89.63;101227.12;1800551;79;21313;-76
2021/06/17 02:12:21;;;;;;;6.22;4.20;;;;;;;17.52;89.84;101220.40;1801234;79;21330;-76
2021/06/17 02:14:53;;;;;;;9.48;4.22;;;;;;;17.48;90.03;101210.88;1796679;79;21341;-74
2021/06/17 02:17:26;;;;;;;10.43;4.55;;;;;;;17.41;90.18;101209.82;1773152;79;21325;-73
2021/06/17 02:19:59;;;;;;;9.37;4.97;;;;;;;17.39;90.41;101208.44;1799801;79;21306;-73
2021/06/17 02:22:31;;;;;;;17.25;5.08;;;;;;;17.32;90.71;101203.11;1786896;79;21314;-75
2021/06/17 02:25:04;;;;;;;13.43;4.78;;;;;;;17.32;90.71;101203.11;1801864;79;21625;-76
2021/06/17 02:27:37;;;;;;;15.15;4.95;;;;;;;17.29;91.29;101217.74;1798483;79;21341;-72
2021/06/17 02:30:11;;;;;;;14.70;4.78;;;;;;;17.29;91.29;101217.74;1770039;81;21830;-74
2021/06/17 02:32:50;;;;;;;12.85;5.10;;;;;;;17.30;91.20;101211.55;1784159;79;21688;-72
2021/06/17 02:35:25;;;;;;;11.80;5.30;;;;;;;17.31;91.33;101214.66;1801249;79;21322;-75
2021/06/17 02:38:03;;;;;;;13.62;4.15;;;;;;;17.31;91.42;101223.08;1783478;79;21361;-74
2021/06/17 02:40:39;;;;;;;15.63;4.10;;;;;;;17.33;91.37;101232.03;1776320;79;21314;-75
2021/06/17 02:43:17;;;;;;;6.15;3.95;;;;;;;17.33;91.27;101234.29;1790987;79;21369;-74
2021/06/17 02:45:50;;;;;;;12.00;5.50;;;;;;;17.32;91.24;101226.97;1791643;79;21400;-75
2021/06/17 02:48:23;;;;;;;11.93;5.30;;;;;;;17.32;91.45;101225.56;1784188;79;21325;-73
2021/06/17 02:50:56;;;;;;;8.38;3.40;;;;;;;17.32;91.51;101228.38;1791265;79;21341;-72
2021/06/17 02:53:28;;;;;;;28.20;7.03;;;;;;;17.33;91.58;101239.91;1779773;79;21716;-73
2021/06/17 02:56:03;;;;;;;14.47;5.10;;;;;;;17.32;91.67;101247.20;1791714;79;21294;-73
2021/06/17 02:58:52;;;;;;;11.00;4.30;;;;;;;17.33;91.78;101248.88;1803095;79;21257;-73
2021/06/17 03:01:48;;;;;;;12.75;5.37;;;;;;;17.33;91.87;101250.28;1803044;79;21183;-76
2021/06/17 03:04:29;;;;;;;9.95;4.60;;;;;;;17.33;91.98;101255.89;1803000;79;21179;-72
2021/06/17 03:07:02;;;;;;;13.75;4.50;;;;;;;17.34;92.13;101251.41;1803802;79;21850;-74
2021/06/17 03:09:40;;;;;;;17.15;4.97;;;;;;;17.39;92.15;101254.21;1801737;79;21440;-77
2021/06/17 03:12:15;;;;;;;29.45;5.08;;;;;;;17.42;92.05;101244.34;1802926;79;21306;-77
2021/06/17 03:14:48;;;;;;;18.73;4.62;;;;;;;17.47;91.88;101259.20;1800427;79;21179;-73
2021/06/17 03:17:20;;;;;;;14.33;4.17;;;;;;;17.49;91.56;101257.51;1801019;79;21369;-76
2021/06/17 03:19:56;;;;;;;15.40;4.60;;;;;;;17.53;91.31;101254.37;1801577;79;21163;-74
2021/06/17 03:22:29;;;;;;;19.45;3.92;;;;;;;17.60;91.26;101259.08;1800592;79;21919;-75
2021/06/17 03:25:05;;;;;;;9.83;4.08;;;;;;;17.66;90.92;101262.12;1802117;79;21309;-73
2021/06/17 03:27:39;;;;;;;6.47;3.83;;;;;;;17.72;90.30;101253.92;1800817;79;21366;-74
2021/06/17 03:30:13;;;;;;;12.80;4.00;;;;;;;17.77;90.23;101259.51;1802859;79;21715;-76
2021/06/17 03:32:46;;;;;;;8.33;3.72;;;;;;;17.82;89.75;101267.34;1802810;79;21210;-74
2021/06/17 03:35:19;;;;;;;;;;;;;;;17.88;89.42;101269.53;1804384;79;21317;-74
2021/06/17 03:37:54;;;;;;;9.70;4.20;;;;;;;17.94;89.17;101280.45;1818074;78;20451;-73
2021/06/17 03:40:28;;;;;;;13.62;4.50;;;;;;;18.00;88.99;101274.20;1803204;79;21321;-74
2021/06/17 03:43:01;;;;;;;13.68;4.37;;;;;;;18.07;88.68;101271.33;1801416;79;21858;-76
2021/06/17 03:45:33;;;;;;;9.55;3.85;;;;;;;18.15;88.37;101275.44;1802761;79;21313;-74
2021/06/17 03:48:07;;;;;;;12.20;4.15;;;;;;;18.24;88.01;101275.91;1802263;79;21353;-76
2021/06/17 03:50:40;;;;;;;10.48;4.20;;;;;;;18.32;87.66;101273.91;1800868;78;21712;-74
2021/06/17 03:53:14;;;;;;;9.35;4.00;;;;;;;18.39;87.32;101271.58;1803971;79;21322;-73
2021/06/17 03:55:47;;;;;;;12.73;4.28;;;;;;;18.46;87.12;101271.23;1804097;79;21183;-73
2021/06/17 03:58:25;;;;;;;12.23;4.03;;;;;;;18.55;86.76;101266.61;1804707;79;21411;-75
2021/06/17 04:00:58;;;;;;;10.63;3.65;;;;;;;18.62;86.37;101269.34;1792088;79;21309;-75
2021/06/17 04:03:31;;;;;;;11.68;3.90;;;;;;;18.70;85.96;101274.30;1800731;79;21816;-77
2021/06/17 04:06:03;;;;;;;10.08;4.80;;;;;;;18.82;85.95;101275.27;1804501;79;21309;-75
2021/06/17 04:08:40;;;;;;;15.30;5.12;;;;;;;18.93;85.35;101287.52;1776759;79;21826;-74
2021/06/17 04:11:13;;;;;;;7.67;3.42;;;;;;;19.01;84.96;101279.80;1784650;79;21353;-69
2021/06/17 04:13:45;;;;;;;8.43;3.30;;;;;;;19.11;84.49;101285.87;1792504;79;21361;-70
2021/06/17 04:16:26;;;;;;;11.17;3.87;;;;;;;19.19;84.01;101286.62;1773413;79;21253;-72
2021/06/17 04:18:57;;;;;;;12.15;4.10;;;;;;;19.31;83.56;101279.41;1771560;80;21242;-74
2021/06/17 04:21:30;;;;;;;7.58;4.25;;;;;;;19.47;83.35;101271.02;1773313;80;21692;-70
2021/06/17 04:24:05;;;;;;;8.47;3.80;;;;;;;19.58;82.21;101270.27;1772968;80;21178;-71
2021/06/17 04:26:36;;;;;;;9.45;3.65;;;;;;;19.61;81.79;101267.67;1782362;79;21309;-72
2021/06/17 04:29:09;;;;;;;11.18;4.22;;;;;;;19.64;80.70;101262.81;1804019;79;21349;-71
2021/06/17 04:31:44;;;;;;;6.45;3.75;;;;;;;19.64;80.72;101256.36;1804123;79;21351;-72
2021/06/17 04:34:19;;;;;;;11.28;5.05;;;;;;;19.63;80.83;101258.92;1804258;79;21219;-70
2021/06/17 04:36:52;;;;;;;12.75;5.53;;;;;;;19.63;80.67;101237.79;1804347;79;21313;-72
2021/06/17 04:39:27;;;;;;;15.77;6.07;;;;;;;19.64;80.53;101239.45;1803822;79;21952;-71
2021/06/17 04:42:00;;;;;;;14.30;6.40;;;;;;;19.63;80.36;101236.38;1803884;79;21385;-72
2021/06/17 04:44:32;;;;;;;14.60;8.47;;;;;;;19.64;80.41;101243.69;1804038;79;21321;-72
2021/06/17 04:47:06;;;;;;;16.90;6.42;;;;;;;19.68;80.62;101246.98;1794324;79;21317;-69
2021/06/17 04:49:39;;;;;;;15.83;6.70;;;;;;;19.71;80.49;101246.38;1772003;80;21191;-71
2021/06/17 04:52:34;;;;;;;17.20;7.45;;;;;;;19.70;80.26;101235.41;1772637;80;21263;-69
2021/06/17 04:55:07;;;;;;;14.60;8.50;;;;;;;19.70;80.21;101243.86;1772466;80;21219;-70
2021/06/17 04:57:40;;;;;;;15.38;6.20;;;;;;;19.67;80.29;101236.01;1772950;80;21199;-71
2021/06/17 05:00:14;;;;;;;15.83;6.00;;;;;;;19.67;80.28;101245.88;1776130;79;21677;-70
2021/06/17 05:02:46;;;;;;;;;;;;;;;19.65;80.13;101250.98;1764678;80;21815;-71
2021/06/17 05:05:18;;;;;;;10.90;7.70;;;;;;;19.63;80.43;101245.66;1786258;78;20301;-79
2021/06/17 05:10:48;;;;;;;10.75;6.92;;;;;;;19.63;80.77;101244.24;1795760;79;21183;-81
2021/06/17 05:13:16;;;;;;;7.50;4.33;;;;;;;19.72;81.12;101262.70;1771651;81;21400;-71
2021/06/17 05:15:50;;;;;;;10.80;5.22;;;;;;;19.77;81.27;101261.22;1771900;80;21774;-76
2021/06/17 05:18:24;;;;;;;10.60;5.58;;;;;;;19.85;81.43;101268.41;1772954;80;21380;-75
2021/06/17 05:20:58;;;;;;;15.58;4.22;;;;;;;19.90;81.19;101266.06;1773811;81;21731;-71
2021/06/17 05:23:31;;;;;;;9.88;4.20;;;;;;;19.95;81.25;101275.29;1774087;79;21317;-70
2021/06/17 05:26:04;;;;;;;8.53;4.25;;;;;;;20.01;80.82;101276.02;1772954;80;21325;-76
2021/06/17 05:28:36;;;;;;;13.07;5.37;;;;;;;20.08;80.81;101292.00;1792456;79;21313;-74
2021/06/17 05:31:09;;;;;;;13.38;4.50;;;;;;;20.11;80.39;101289.40;1804419;79;21611;-74
2021/06/17 05:33:44;;;;;;;12.70;4.97;;;;;;;20.12;79.91;101293.88;1779674;79;21428;-73
2021/06/17 05:36:16;;;;;;;12.10;4.55;;;;;;;20.12;79.95;101286.02;1771774;79;21357;-73
2021/06/17 05:38:51;;;;;;;9.23;4.78;;;;;;;20.08;79.28;101284.39;1773099;80;21349;-74
2021/06/17 05:41:24;;;;;;;8.18;5.17;;;;;;;20.02;79.78;101282.77;1772913;79;21337;-73
2021/06/17 05:43:56;;;;;;;10.00;4.30;;;;;;;20.00;80.01;101285.63;1772772;81;21321;-72
2021/06/17 05:46:29;;;;;;;13.20;4.23;;;;;;;19.94;80.21;101278.41;1772384;80;21195;-71
2021/06/17 05:49:01;;;;;;;12.07;4.22;;;;;;;19.87;80.32;101268.10;1773442;80;21194;-72
2021/06/17 05:51:34;;;;;;;10.15;4.50;;;;;;;19.80;80.72;101254.98;1773104;80;21388;-72
2021/06/17 05:54:07;;;;;;;18.73;5.33;;;;;;;19.74;81.23;101257.62;1771318;79;21365;-75
2021/06/17 05:56:40;;;;;;;20.32;5.15;;;;;;;19.70;81.68;101264.41;1768885;81;21360;-72
2021/06/17 05:59:12;;;;;;;12.53;5.70;;;;;;;19.67;81.95;101262.22;1769830;81;21317;-69
2021/06/17 06:01:46;;;;;;;11.48;6.45;;;;;;;19.64;82.25;101263.41;1770656;80;21195;-73
2021/06/17 06:04:18;;;;;;;12.37;6.58;;;;;;;19.65;82.57;101256.63;1771008;80;21320;-73
2021/06/17 06:06:51;;;;;;;12.17;6.63;;;;;;;19.68;82.86;101251.20;1769123;81;21191;-70
2021/06/17 06:09:24;;;;;;;14.50;7.17;;;;;;;19.73;82.96;101256.77;1770113;80;21758;-73
2021/06/17 06:11:56;;;;;;;18.42;8.40;;;;;;;19.78;82.97;101258.09;1770396;80;21344;-72
2021/06/17 06:14:29;;;;;;;12.73;7.75;;;;;;;19.85;83.14;101264.73;1770270;80;21321;-75
2021/06/17 06:17:01;;;;;;;9.00;6.53;;;;;;;19.90;83.08;101259.86;1769046;81;21182;-72
2021/06/17 06:19:35;;;;;;;14.33;9.03;;;;;;;19.93;82.82;101261.23;1770137;80;21866;-72
2021/06/17 06:22:09;;;;;;;21.12;9.10;;;;;;;19.97;83.01;101265.09;1769469;80;21325;-73
2021/06/17 06:24:42;;;;;;;9.33;5.03;;;;;;;19.99;83.04;101265.05;1770835;80;21187;-74
2021/06/17 06:27:14;;;;;;;11.30;4.43;;;;;;;20.00;83.08;101263.08;1772828;81;21175;-75
2021/06/17 06:29:47;;;;;;;14.85;5.58;;;;;;;20.04;83.20;101257.06;1769479;81;21827;-75
2021/06/17 06:32:19;;;;;;;12.07;4.93;;;;;;;20.10;83.07;101265.16;1770056;81;21405;-74
2021/06/17 06:34:52;;;;;;;9.05;4.70;;;;;;;20.19;82.98;101265.30;1771953;81;21353;-73
2021/06/17 06:37:27;;;;;;;14.98;4.62;;;;;;;20.26;82.49;101265.72;1770706;81;21184;-74
2021/06/17 06:39:59;;;;;;;10.78;4.55;;;;;;;20.34;82.50;101266.41;1771620;80;21325;-70
2021/06/17 06:42:32;;;;;;;10.48;4.85;;;;;;;20.41;81.83;101271.91;1770217;80;21206;-74
2021/06/17 06:45:06;;;;;;;8.90;4.90;;;;;;;20.41;81.66;101270.50;1771965;79;21409;-73
2021/06/17 06:47:40;;;;;;;14.43;5.45;;;;;;;20.39;81.69;101278.45;1772458;81;21332;-72
2021/06/17 06:50:13;;;;;;;9.15;5.55;;;;;;;20.35;81.78;101279.39;1771734;81;21814;-72
2021/06/17 06:52:46;;;;;;;11.20;5.65;;;;;;;20.30;82.03;101285.94;1772200;81;21926;-73
2021/06/17 06:55:19;;;;;;;17.27;7.28;;;;;;;20.27;82.37;101287.98;1770904;80;21392;-71
2021/06/17 06:57:52;;;;;;;13.67;6.13;;;;;;;20.25;82.63;101282.39;1772030;81;21218;-69
2021/06/17 07:00:25;;;;;;;11.90;6.05;;;;;;;20.25;82.83;101279.57;1771755;81;21368;-75
2021/06/17 07:02:58;;;;;;;6.70;5.50;;;;;;;20.26;83.02;101268.54;1769844;81;21249;-71
2021/06/17 07:05:30;;;;;;;8.68;5.75;;;;;;;20.26;83.16;101277.86;1769381;81;21842;-74
2021/06/17 07:08:09;;;;;;;7.95;5.30;;;;;;;20.32;83.26;101290.72;1770881;80;21321;-72
2021/06/17 07:10:42;;;;;;;11.45;4.33;;;;;;;20.34;83.33;101290.39;1771558;80;21835;-74
2021/06/17 07:13:14;;;;;;;12.37;4.97;;;;;;;20.39;83.53;101298.76;1771670;81;21207;-71
2021/06/17 07:15:47;;;;;;;9.58;6.00;;;;;;;20.46;83.91;101309.06;1758082;81;21373;-71
2021/06/17 07:18:20;;;;;;;12.03;5.40;;;;;;;20.49;84.11;101303.63;1770809;81;21226;-72
2021/06/17 07:20:53;;;;;;;7.85;5.33;;;;;;;20.50;84.23;101306.74;1770709;81;21207;-73
2021/06/17 07:23:27;;;;;;;11.83;5.90;;;;;;;20.53;84.68;101315.98;1771926;81;21309;-69
2021/06/17 07:26:01;;;;;;;12.25;6.37;;;;;;;20.54;85.19;101318.24;1770067;81;21373;-75
2021/06/17 07:28:34;;;;;;;15.32;7.28;;;;;;;20.54;85.49;101311.19;1771224;81;21404;-71
2021/06/17 07:31:07;;;;;;;11.55;7.08;;;;;;;20.58;85.88;101316.45;1770155;81;21191;-71
2021/06/17 07:33:39;;;;;;;13.30;8.17;;;;;;;20.60;86.33;101319.81;1770271;81;21345;-70
2021/06/17 07:36:14;;;;;;;17.62;9.70;;;;;;;20.59;86.76;101318.12;1771764;81;21199;-72
2021/06/17 07:38:47;;;;;;;11.55;8.60;;;;;;;20.62;87.44;101323.16;1771678;81;21350;-71
2021/06/17 07:41:19;;;;;;;17.85;8.70;;;;;;;20.66;87.85;101317.16;1771701;81;21356;-74
2021/06/17 07:43:52;;;;;;;16.23;7.33;;;;;;;20.69;87.77;101317.93;1771875;80;21219;-71
2021/06/17 07:46:25;;;;;;;10.63;6.17;;;;;;;20.71;88.01;101319.30;1770552;81;21316;-73
2021/06/17 07:49:01;;;;;;;12.90;6.30;;;;;;;20.75;88.16;101320.92;1772114;81;21238;-69
2021/06/17 07:51:34;;;;;;;10.15;6.53;;;;;;;20.75;88.27;101329.39;1770389;81;21361;-74
2021/06/17 07:54:06;;;;;;;11.50;6.28;;;;;;;20.79;88.25;101331.86;1771786;81;23667;-74
2021/06/17 07:56:39;;;;;;;12.33;5.95;;;;;;;20.83;88.43;101337.12;1771823;80;21206;-72
2021/06/17 07:59:14;;;;;;;9.75;6.28;;;;;;;20.79;88.22;101351.63;1771594;81;21869;-72
2021/06/17 08:01:48;;;;;;;12.20;6.62;;;;;;;20.74;88.08;101346.07;1771649;81;21187;-72
2021/06/17 08:04:21;;;;;;;17.65;6.75;;;;;;;20.68;88.49;101359.46;1771542;81;21890;-74
2021/06/17 08:06:55;;;;;;;10.32;7.47;;;;;;;20.62;88.83;101370.58;1771668;81;21175;-76
2021/06/17 08:09:29;;;;;;;13.83;7.60;;;;;;;20.60;89.19;101377.69;1772211;81;21352;-74
2021/06/17 08:12:02;;;;;;;14.53;6.40;;;;;;;20.56;89.73;101384.53;1772241;81;21183;-70
2021/06/17 08:14:34;;;;;;;13.23;7.40;;;;;;;20.45;90.31;101379.36;1769250;81;21365;-74
2021/06/17 08:17:07;;;;;;;15.23;6.17;;;;;;;20.36;90.85;101378.40;1769050;81;21326;-73
2021/06/17 08:19:40;;;;;;;11.33;5.28;;;;;;;20.31;91.43;101372.84;1769174;81;21680;-72
2021/06/17 08:22:13;;;;;;;18.45;6.87;;;;;;;20.28;91.56;101379.08;1769114;81;21352;-68
2021/06/17 08:24:46;;;;;;;12.80;6.60;;;;;;;20.27;92.10;101381.08;1769922;81;21866;-72
2021/06/17 08:27:19;;;;;;;8.98;5.42;;;;;;;20.26;92.98;101371.51;1771140;81;21318;-76
2021/06/17 08:29:51;;;;;;;9.33;6.13;;;;;;;20.23;93.65;101374.38;1772993;81;21187;-77
2021/06/17 08:32:24;;;;;;;10.97;6.37;;;;;;;20.23;93.86;101373.55;1769094;81;21329;-70
2021/06/17 08:34:57;;;;;;;9.68;5.72;;;;;;;20.26;94.30;101377.16;1771332;81;21913;-74
2021/06/17 08:37:30;;;;;;;13.08;5.33;;;;;;;20.29;94.57;101370.91;1772107;81;21416;-74
2021/06/17 08:40:05;;;;;;;7.15;5.50;;;;;;;20.28;94.79;101362.16;1771215;81;21815;-73
2021/06/17 08:42:37;;;;;;;10.50;5.80;;;;;;;20.35;95.15;101354.98;1769052;81;21330;-73
2021/06/17 08:45:12;;;;;;;10.95;5.67;;;;;;;20.44;95.43;101352.28;1770155;81;21329;-75
2021/06/17 08:47:46;;;;;;;10.63;6.17;;;;;;;20.52;95.45;101358.62;1770478;81;21401;-72
2021/06/17 08:50:19;;;;;;;17.57;6.75;;;;;;;20.60;95.54;101350.87;1769059;81;21341;-72
2021/06/17 08:52:52;;;;;;;17.50;8.33;;;;;;;20.62;95.50;101346.59;1768983;81;21179;-75
2021/06/17 08:55:27;;;;;;;15.23;6.75;;;;;;;20.63;95.22;101355.31;1771336;81;21264;-71
2021/06/17 08:57:59;;;;;;;12.35;7.03;;;;;;;20.61;95.36;101353.36;1772365;80;21360;-72
2021/06/17 09:00:38;;;;;;;11.95;7.45;;;;;;;20.66;95.43;101358.09;1768900;80;21329;-70
2021/06/17 09:03:14;;;;;;;16.62;7.97;;;;;;;20.69;95.49;101352.66;1769839;81;21216;-71
2021/06/17 09:05:57;;;;;;;14.73;6.80;;;;;;;20.71;95.54;101351.77;1770874;80;21332;-75
2021/06/17 09:08:39;;;;;;;9.05;6.47;;;;;;;20.72;95.70;101354.02;1770143;80;21428;-74
2021/06/17 09:11:18;;;;;;;6.03;5.28;;;;;;;20.74;96.02;101354.54;1768734;81;21333;-74
2021/06/17 09:13:51;;;;;;;16.65;6.83;;;;;;;20.74;95.85;101352.57;1771654;81;21315;-75
2021/06/17 09:16:28;;;;;;;10.23;6.55;;;;;;;20.74;95.71;101355.39;1771612;81;21751;-73
2021/06/17 09:19:01;;;;;;;12.05;6.22;;;;;;;20.73;95.73;101352.88;1771214;81;21352;-72
2021/06/17 09:21:33;;;;;;;7.92;6.20;;;;;;;20.74;95.86;101346.92;1771850;81;21326;-73
2021/06/17 09:24:07;;;;;;;8.23;5.53;;;;;;;20.76;95.90;101356.47;1760729;81;21226;-73
2021/06/17 09:26:40;;;;;;;10.20;6.95;;;;;;;20.77;95.92;101356.73;1770878;80;21239;-74
2021/06/17 09:29:13;;;;;;;8.40;5.03;;;;;;;20.77;95.91;101365.20;1769138;81;21175;-72
2021/06/17 09:31:45;;;;;;;9.93;5.00;;;;;;;;;;1772411;79;21945;-70
2021/06/17 09:34:17;;;;;;;10.35;5.72;;;;;;;20.74;95.87;101367.24;1770860;80;21199;-73
2021/06/17 09:36:49;;;;;;;13.35;5.55;;;;;;;20.71;95.92;101343.30;1769847;81;21317;-70
2021/06/17 09:39:23;;;;;;;10.90;5.83;;;;;;;20.75;96.23;101306.24;1771345;81;21322;-69
2021/06/17 09:41:56;;;;;;;9.78;6.90;;;;;;;20.83;96.74;101311.71;1769689;80;21436;-74
2021/06/17 09:44:41;;;;;;;7.37;5.53;;;;;;;20.85;96.95;101319.31;1769262;80;21831;-72
2021/06/17 09:47:25;;;;;;;9.03;5.80;;;;;;;20.85;97.35;101313.08;1769022;81;21352;-75
2021/06/17 09:50:03;;;;;;;8.28;5.20;;;;;;;20.90;97.51;101311.59;1771033;79;21163;-72
2021/06/17 09:52:41;;;;;;;7.10;4.58;;;;;;;20.95;97.62;101300.76;1771839;80;21333;-71
2021/06/17 09:55:13;;;;;;;8.98;4.22;;;;;;;20.99;97.17;101289.11;1770932;80;21357;-73
2021/06/17 09:57:47;;;;;;;9.05;5.60;;;;;;;21.03;97.41;101281.69;1770766;80;21405;-73
2021/06/17 10:00:20;;;;;;;6.70;5.63;;;;;;;21.10;97.41;101274.44;1770694;80;21266;-73
2021/06/17 10:02:52;;;;;;;10.45;6.03;;;;;;;21.21;97.44;101272.24;1771263;80;21338;-72
2021/06/17 10:05:31;;;;;;;10.10;5.95;;;;;;;21.27;97.13;101268.97;1736904;80;21328;-74
2021/06/17 10:08:00;;;;;;;9.63;5.90;;;;;;;21.27;96.85;101262.50;1771025;80;21191;-72
2021/06/17 10:10:36;;;;;;;9.50;5.22;;;;;;;21.27;96.82;101246.36;1761050;80;21323;-71
2021/06/17 10:13:09;;;;;;;7.47;5.72;;;;;;;21.31;96.65;101244.58;1760340;81;21329;-73
2021/06/17 10:15:43;;;;;;;10.05;5.58;;;;;;;21.37;96.66;101248.96;1770723;81;21684;-74
2021/06/17 10:18:15;;;;;;;7.25;5.87;;;;;;;21.42;96.38;101237.55;1770516;80;21384;-73
2021/06/17 10:20:50;;;;;;;15.33;6.17;;;;;;;21.46;96.44;101234.91;1772196;80;21325;-70
2021/06/17 10:23:22;;;;;;;8.53;4.65;;;;;;;21.47;95.92;101247.88;1771837;81;22501;-69
2021/06/17 10:25:55;;;;;;;8.33;5.10;;;;;;;21.46;95.33;101239.15;1772404;80;21322;-74
2021/06/17 10:28:46;;;;;;;6.83;4.70;;;;;;;21.44;95.29;101236.63;1772075;80;21729;-72
2021/06/17 10:31:40;;;;;;;9.95;5.33;;;;;;;21.43;95.02;101238.36;1732796;80;21317;-73
2021/06/17 10:34:29;;;;;;;;;;;;;;;21.40;94.98;101220.64;1771515;79;21424;-70
2021/06/17 10:37:10;;;;;;;9.23;5.70;;;;;;;21.37;95.00;101217.03;1771301;80;20194;-73
2021/06/17 10:39:55;;;;;;;7.15;5.12;;;;;;;21.31;94.90;101219.72;1770123;80;21194;-73
2021/06/17 10:42:34;;;;;;;8.05;6.20;;;;;;;21.28;94.90;101212.70;1771348;80;21202;-72
2021/06/17 10:45:10;;;;;;;7.85;5.17;;;;;;;21.28;94.96;101228.25;1769261;81;21239;-74
2021/06/17 10:47:50;;;;;;;8.10;5.20;;;;;;;21.32;95.04;101219.97;1770831;80;21839;-73
2021/06/17 10:50:27;;;;;;;7.42;5.00;;;;;;;21.34;94.61;101219.91;1771136;80;21317;-72
2021/06/17 10:53:23;;;;;;;9.00;5.65;;;;;;;21.31;94.56;101229.60;1755904;80;21385;-73
2021/06/17 10:56:05;;;;;;;8.93;5.65;;;;;;;21.28;94.89;101230.26;1772170;81;21894;-71
2021/06/17 10:58:50;;;;;;;7.85;5.92;;;;;;;21.30;95.02;101218.05;1769562;80;21348;-74
2021/06/17 11:01:41;;;;;;;7.47;5.72;;;;;;;21.29;95.09;101221.47;1769370;81;21450;-73
2021/06/17 11:04:31;;;;;;;9.95;5.75;;;;;;;21.24;94.89;101219.32;1769805;80;21692;-73
2021/06/17 11:07:10;;;;;;;6.97;5.40;;;;;;;21.16;94.84;101218.08;1769567;81;21227;-69
2021/06/17 11:09:49;;;;;;;7.28;5.08;;;;;;;21.07;95.00;101219.15;1770620;81;21342;-74
2021/06/17 11:12:27;;;;;;;13.08;6.22;;;;;;;20.99;95.65;101223.58;1770724;81;21360;-75
2021/06/17 11:15:02;;;;;;;7.33;6.20;;;;;;;20.92;96.22;101219.51;1771938;81;21700;-75
2021/06/17 11:17:41;;;;;;;7.40;5.42;;;;;;;20.88;96.59;101220.72;1760453;81;21333;-76
2021/06/17 11:20:22;;;;;;;6.90;4.65;;;;;;;20.88;96.97;101217.05;1771013;81;21322;-69
2021/06/17 11:22:57;;;;;;;8.63;5.42;;;;;;;20.86;97.22;101216.50;1771760;80;21176;-70
2021/06/17 11:25:32;;;;;;;6.00;4.83;;;;;;;20.85;97.54;101213.42;1771717;81;21175;-73
2021/06/17 11:28:15;;;;;;;6.70;5.20;;;;;;;20.88;97.51;101225.52;1769351;81;21286;-72
2021/06/17 11:30:55;;;;;;;13.13;5.70;;;;;;;20.90;97.29;101226.06;1771150;81;21512;-73
2021/06/17 11:33:35;;;;;;;10.03;6.17;;;;;;;20.88;97.03;101229.19;1771895;81;21191;-73
2021/06/17 11:36:10;;;;;;;7.40;5.35;;;;;;;20.86;96.95;101224.98;1772232;81;21337;-69
2021/06/17 11:38:42;;;;;;;8.18;5.37;;;;;;;20.84;96.96;101231.52;1758914;81;21381;-73
2021/06/17 11:41:23;;;;;;;7.20;4.70;;;;;;;20.80;97.05;101226.23;1769389;81;21334;-74
2021/06/17 11:44:01;;;;;;;5.50;4.80;;;;;;;20.79;97.35;101235.86;1769707;81;21326;-73
2021/06/17 11:46:38;;;;;;;4.47;4.08;;;;;;;20.78;97.39;101238.43;1771733;81;21364;-72
2021/06/17 11:49:13;;;;;;;9.73;4.92;;;;;;;20.78;97.59;101234.20;1768548;81;21383;-73
2021/06/17 11:51:52;;;;;;;6.78;4.45;;;;;;;20.77;97.63;101236.73;1772403;81;21187;-73
2021/06/17 11:54:25;;;;;;;6.65;4.60;;;;;;;20.74;97.91;101228.91;1771858;80;21194;-74
2021/06/17 11:57:00;;;;;;;8.68;4.75;;;;;;;20.72;97.82;101235.45;1771477;81;21337;-70
2021/06/17 11:59:36;;;;;;;6.00;4.80;;;;;;;20.71;97.86;101243.08;1768705;81;21239;-69
2021/06/17 12:02:22;;;;;;;7.40;5.15;;;;;;;20.69;98.05;101234.09;1768826;81;21234;-73